KCEF/CEF METAR and TAF weather

Enter ICAO airport designator
Station Type Date Time Source
KCEF METAR 2018/12/13 14:56 UTC NOAA

KCEF 131456Z 35003KT 10SM SCT038 BKN100 OVC140 M05/M12 A3050 RMK AO2A SLP339 T10481123 52015


Station Type Date Time Source
KCEF Decoded METAR 2018/12/13 14:56 UTC NOAA

Chicopee Falls / Westover Air Force Base, MA, United States (KCEF) 42-12N 072-32W 75M
Dec 13, 2018 - 09:56 AM EST / 2018.12.13 1456 UTC
Wind: from the N (350 degrees) at 3 MPH (3 KT):0
Visibility: 10 mile(s):0
Sky conditions: overcast
Temperature: 23.4 F (-4.8 C)
Dew Point: 9.9 F (-12.3 C)
Relative Humidity: 55%
Pressure (altimeter): 30.5 in. Hg (1032 hPa)
Pressure tendency: 0.04 inches (1.5 hPa) higher than three hours ago
ob: KCEF 131456Z 35003KT 10SM SCT038 BKN100 OVC140 M05/M12 A3050 RMK AO2A SLP339 T10481123 52015
cycle: 15

Station Type Date Time Source
KCEF TAF 2018/12/13 11:36 UTC NOAA

TAF COR KCEF 131130Z 1311/1417 VRB06KT 9999 BKN100 BKN250 QNH3043INS
BECMG 1313/1314 10009KT 9999 FEW015 BKN035 OVC100 620356 QNH3046INS
BECMG 1317/1318 10009KT 9999 -SN SCT014 OVC025 620257 QNH3046INS
BECMG 1318/1319 06009KT 6000 -SN SCT006 OVC017 620178 QNH3046INS
TEMPO 1320/1324 3200 -SN BKN006 OVC017 620068
BECMG 1400/1401 VRB06KT 9999 NSW OVC015 620152 QNH3048INS
BECMG 1408/1409 VRB06KT 9999 BKN008 OVC015 620083 QNH3049INS
BECMG 1415/1416 13006KT 9999 FEW008 BKN017 620172 QNH3042INS TX00/1320Z TNM08/1312Z


Example: see airport list